Time;durP1;ratioP1;P1;durP2;ratioP2;P2;SDS_P1;SDS_P2;PMS_P1;PMS_P2;Temp;Humidity;BMP_temperature;BMP_pressure;BME280_temperature;BME280_humidity;BME280_pressure;Samples;Min_cycle;Max_cycle;Signal;HPM_P1;HPM_P2
2021/05/30 00:02:10;;;;;;;0.60;0.50;;;;;;;14.62;74.76;99159.94;1729180;81;21071;-53
2021/05/30 00:04:38;;;;;;;3.58;0.60;;;;;;;14.59;74.74;99155.23;1729116;81;21155;-52
2021/05/30 00:07:05;;;;;;;0.70;0.50;;;;;;;14.62;74.82;99159.08;1728818;81;21606;-53
2021/05/30 00:09:31;;;;;;;1.77;0.55;;;;;;;14.63;75.03;99160.29;1714269;81;21464;-50
2021/05/30 00:11:57;;;;;;;0.70;0.60;;;;;;;14.63;75.03;99160.29;1728462;81;21138;-49
2021/05/30 00:14:25;;;;;;;0.60;0.60;;;;;;;14.65;75.03;99156.12;1728449;81;21095;-50
2021/05/30 00:16:53;;;;;;;2.98;0.75;;;;;;;14.64;75.03;99162.51;1730822;81;21115;-50
2021/05/30 00:19:20;;;;;;;2.08;0.85;;;;;;;14.62;75.10;99160.43;1728883;81;21136;-50
2021/05/30 00:21:46;;;;;;;2.10;0.60;;;;;;;14.60;75.18;99160.53;1728535;81;21711;-53
2021/05/30 00:24:12;;;;;;;3.75;0.60;;;;;;;14.59;75.25;99158.80;1727412;81;21131;-53
2021/05/30 00:26:39;;;;;;;1.07;0.50;;;;;;;14.59;75.30;99167.41;1728687;80;23023;-50
2021/05/30 00:29:05;;;;;;;2.37;0.57;;;;;;;14.59;75.41;99164.70;1729308;81;21683;-55
2021/05/30 00:31:50;;;;;;;3.67;0.53;;;;;;;14.55;75.48;99160.48;1732420;81;21020;-52
2021/05/30 00:34:16;;;;;;;1.35;0.68;;;;;;;14.58;75.55;99161.62;1734220;81;21605;-51
2021/05/30 00:36:42;;;;;;;4.12;0.82;;;;;;;14.53;75.82;99169.23;1731538;81;21474;-52
2021/05/30 00:39:09;;;;;;;1.87;0.70;;;;;;;14.53;75.82;99169.23;1731987;81;21080;-51
2021/05/30 00:41:35;;;;;;;1.50;0.70;;;;;;;14.48;75.74;99170.91;1729225;80;21153;-55
2021/05/30 00:44:01;;;;;;;0.68;0.45;;;;;;;14.46;75.78;99166.08;1725542;81;21076;-50
2021/05/30 00:46:29;;;;;;;2.58;0.53;;;;;;;14.45;75.95;99168.93;1729287;81;21088;-49
2021/05/30 00:48:56;;;;;;;1.00;0.50;;;;;;;14.44;76.00;99172.61;1729731;81;21500;-52
2021/05/30 00:51:22;;;;;;;0.82;0.60;;;;;;;14.43;76.14;99177.64;1685238;82;21116;-50
2021/05/30 00:53:48;;;;;;;0.93;0.50;;;;;;;14.42;76.18;99180.84;1687796;83;21730;-50
2021/05/30 00:56:16;;;;;;;4.00;0.60;;;;;;;14.44;76.31;99176.67;1681132;83;21158;-50
2021/05/30 00:58:42;;;;;;;2.40;0.60;;;;;;;14.46;76.33;99180.97;1679925;83;21450;-51
2021/05/30 01:01:09;;;;;;;3.42;0.70;;;;;;;14.46;76.29;99170.66;1669004;84;21219;-52
2021/05/30 01:03:38;;;;;;;0.80;0.65;;;;;;;14.43;76.24;99169.03;1678351;83;21079;-51
2021/05/30 01:06:04;;;;;;;4.87;0.70;;;;;;;14.41;76.34;99168.76;1679572;83;21285;-55
2021/05/30 01:08:32;;;;;;;0.60;0.60;;;;;;;14.36;76.39;99168.59;1689991;82;21167;-50
2021/05/30 01:11:00;;;;;;;0.95;0.50;;;;;;;14.33;76.55;99169.29;1727841;81;21822;-55
2021/05/30 01:13:28;;;;;;;1.02;0.70;;;;;;;14.28;76.84;99165.58;1730176;81;20941;-52
2021/05/30 01:15:54;;;;;;;0.88;0.57;;;;;;;14.28;76.84;99165.58;1726451;81;21013;-52
2021/05/30 01:18:22;;;;;;;2.77;0.70;;;;;;;14.26;76.77;99158.05;1732770;81;21545;-55
2021/05/30 01:20:51;;;;;;;6.62;0.60;;;;;;;14.26;76.93;99157.18;1731486;81;20944;-54
2021/05/30 01:23:18;;;;;;;1.87;0.70;;;;;;;14.26;77.00;99160.76;1728337;81;21706;-55
2021/05/30 01:25:45;;;;;;;0.60;0.60;;;;;;;14.26;77.09;99160.76;1731859;81;20977;-54
2021/05/30 01:28:15;;;;;;;0.98;0.80;;;;;;;14.27;77.19;99160.27;1732113;81;20960;-51
2021/05/30 01:30:42;;;;;;;1.15;0.80;;;;;;;14.25;77.21;99164.44;1686381;82;21087;-52
2021/05/30 01:33:09;;;;;;;2.05;0.70;;;;;;;14.23;77.33;99165.03;1729175;81;20913;-54
2021/05/30 01:35:35;;;;;;;0.80;0.80;;;;;;;14.24;77.47;99164.54;1731699;81;21575;-50
2021/05/30 01:38:02;;;;;;;3.42;0.60;;;;;;;14.22;77.40;99161.94;1731716;81;21451;-54
2021/05/30 01:40:28;;;;;;;1.02;0.60;;;;;;;14.20;77.50;99159.86;1730435;81;21367;-54
2021/05/30 01:42:55;;;;;;;1.05;0.50;;;;;;;14.21;77.69;99167.45;1728380;81;20928;-51
2021/05/30 01:45:23;;;;;;;4.10;0.60;;;;;;;14.22;77.80;99163.78;1732573;81;21345;-51
2021/05/30 01:47:50;;;;;;;2.15;0.60;;;;;;;14.25;77.83;99169.84;1702136;82;21466;-51
2021/05/30 01:50:21;;;;;;;10.68;1.10;;;;;;;14.28;77.85;99168.77;1699896;82;20968;-54
2021/05/30 01:52:48;;;;;;;2.72;1.00;;;;;;;14.29;77.84;99167.28;1699643;82;20913;-51
2021/05/30 01:55:40;;;;;;;1.12;0.70;;;;;;;14.29;77.83;99168.63;1667547;84;21474;-51
2021/05/30 01:59:52;;;;;;;1.90;0.70;;;;;;;14.33;77.72;99166.58;1793425;78;22598;-55
2021/05/30 02:02:18;;;;;;;1.42;0.90;;;;;;;14.26;77.79;99169.36;1740004;81;22350;-53
2021/05/30 02:04:48;;;;;;;0.60;0.60;;;;;;;14.23;77.85;99172.28;1740226;81;21682;-53
2021/05/30 02:07:15;;;;;;;1.32;0.90;;;;;;;14.20;77.95;99166.62;1717837;81;21269;-49
2021/05/30 02:09:41;;;;;;;3.50;0.68;;;;;;;14.17;78.05;99165.97;1709499;82;21095;-52
2021/05/30 02:12:08;;;;;;;1.67;0.60;;;;;;;14.15;78.20;99168.77;1712817;83;21089;-54
2021/05/30 02:14:35;;;;;;;1.47;0.68;;;;;;;14.15;78.32;99170.61;1713896;83;21210;-52
2021/05/30 02:17:02;;;;;;;1.57;0.60;;;;;;;14.16;78.45;99169.16;1712891;83;21190;-51
2021/05/30 02:19:29;;;;;;;0.80;0.60;;;;;;;14.16;78.47;99170.52;1714786;81;21191;-53
2021/05/30 02:21:55;;;;;;;1.30;0.70;;;;;;;14.18;78.58;99171.27;1708689;82;21129;-51
2021/05/30 02:24:22;;;;;;;0.82;0.80;;;;;;;14.21;78.57;99180.99;1711247;81;21167;-51
2021/05/30 02:26:50;;;;;;;2.95;0.72;;;;;;;14.22;78.63;99182.72;1740939;81;20976;-53
2021/05/30 02:29:37;;;;;;;2.55;0.90;;;;;;;14.22;78.67;99184.08;1715667;82;21677;-52
2021/05/30 02:32:05;;;;;;;1.98;0.80;;;;;;;14.21;78.74;99187.27;1689177;82;21429;-51
2021/05/30 02:34:31;;;;;;;3.45;0.80;;;;;;;14.21;78.80;99194.04;1714680;81;21013;-52
2021/05/30 02:36:58;;;;;;;3.22;0.78;;;;;;;14.21;78.85;99194.52;1716358;83;21588;-53
2021/05/30 02:39:25;;;;;;;1.27;0.70;;;;;;;14.21;78.91;99195.88;1710951;83;21577;-54
2021/05/30 02:41:52;;;;;;;1.00;0.70;;;;;;;14.19;78.99;99196.50;1738683;81;21024;-56
2021/05/30 02:44:18;;;;;;;1.67;0.90;;;;;;;14.18;79.09;99194.28;1721047;81;21798;-52
2021/05/30 02:46:44;;;;;;;2.37;0.78;;;;;;;14.18;79.17;99195.63;1721726;81;20923;-51
2021/05/30 02:49:11;;;;;;;4.33;1.00;;;;;;;14.16;79.30;99195.36;1719306;81;21594;-50
2021/05/30 02:51:37;;;;;;;0.80;0.70;;;;;;;14.16;79.45;99190.81;1717946;82;21162;-50
2021/05/30 02:54:04;;;;;;;2.55;0.75;;;;;;;14.15;79.53;99186.85;1717787;81;21189;-52
2021/05/30 02:56:31;;;;;;;0.80;0.80;;;;;;;14.14;79.89;99185.98;1717074;81;21041;-54
2021/05/30 02:58:57;;;;;;;2.42;0.85;;;;;;;14.14;79.89;99185.98;1707219;82;21110;-53
2021/05/30 03:01:23;;;;;;;0.70;0.70;;;;;;;14.20;79.83;99190.98;1693879;83;21199;-52
2021/05/30 03:03:50;;;;;;;1.67;0.90;;;;;;;14.20;79.83;99190.98;1739210;80;21150;-55
2021/05/30 03:06:17;;;;;;;1.85;0.90;;;;;;;14.22;79.70;99186.78;1739726;80;21872;-52
2021/05/30 03:08:43;;;;;;;1.22;0.90;;;;;;;14.19;80.07;99186.55;1741790;80;20921;-50
2021/05/30 03:11:11;;;;;;;2.40;0.80;;;;;;;14.19;80.07;99186.55;1741739;80;21091;-54
2021/05/30 03:13:38;;;;;;;2.20;0.80;;;;;;;14.18;79.86;99187.52;1739603;80;21143;-52
2021/05/30 03:16:04;;;;;;;1.45;0.80;;;;;;;14.16;79.87;99186.75;1702576;82;21089;-50
2021/05/30 03:18:32;;;;;;;3.58;0.80;;;;;;;14.14;79.93;99181.92;1706696;82;21087;-54
2021/05/30 03:21:00;;;;;;;1.10;0.80;;;;;;;14.11;80.04;99187.58;1739923;80;21102;-54
2021/05/30 03:23:26;;;;;;;2.17;0.90;;;;;;;14.09;80.19;99190.88;1737268;80;21067;-51
2021/05/30 03:25:52;;;;;;;2.15;0.90;;;;;;;14.09;80.31;99194.07;1737938;80;21086;-53
2021/05/30 03:28:19;;;;;;;2.30;0.90;;;;;;;14.11;80.34;99196.19;1738381;80;21222;-52
2021/05/30 03:30:46;;;;;;;0.68;0.68;;;;;;;14.13;80.38;99193.72;1740023;80;21145;-53
2021/05/30 03:33:12;;;;;;;1.05;0.82;;;;;;;14.16;80.37;99192.16;1702830;82;21144;-51
2021/05/30 03:35:39;;;;;;;2.65;0.80;;;;;;;14.20;80.37;99200.45;1737283;80;21494;-50
2021/05/30 03:38:09;;;;;;;0.70;0.70;;;;;;;14.22;80.29;99206.60;1738651;80;21191;-53
2021/05/30 03:40:45;;;;;;;1.77;0.78;;;;;;;14.25;80.25;99209.59;1737726;80;21008;-53
2021/05/30 03:43:05;;;;;;;1.10;1.00;;;;;;;14.26;80.17;99209.97;1734733;80;21146;-53
2021/05/30 03:45:31;;;;;;;1.07;0.80;;;;;;;14.26;80.16;99206.77;1736747;80;21101;-54
2021/05/30 03:47:59;;;;;;;3.95;1.02;;;;;;;14.26;80.14;99207.27;1738406;80;21165;-50
2021/05/30 03:50:25;;;;;;;1.95;0.70;;;;;;;14.25;80.15;99210.45;1737853;80;21179;-50
2021/05/30 03:52:51;;;;;;;0.80;0.72;;;;;;;14.28;80.12;99208.02;1737591;80;21017;-50
2021/05/30 03:55:19;;;;;;;1.40;0.90;;;;;;;14.27;80.20;99207.64;1736551;80;22327;-55
2021/05/30 03:57:46;;;;;;;2.95;0.65;;;;;;;14.31;80.10;99209.14;1737229;80;21726;-52
2021/05/30 04:00:18;;;;;;;0.93;0.70;;;;;;;14.34;80.13;99203.52;1757052;80;21093;-53
2021/05/30 04:02:46;;;;;;;0.60;0.60;;;;;;;14.36;80.10;99202.44;1762311;80;20977;-52
2021/05/30 04:05:13;;;;;;;1.77;0.70;;;;;;;14.42;80.10;99201.63;1755243;80;21052;-49
2021/05/30 04:07:40;;;;;;;5.60;0.80;;;;;;;14.44;79.97;99191.56;1763632;80;21750;-51
2021/05/30 04:10:10;;;;;;;2.95;0.80;;;;;;;14.48;79.61;99190.34;1759971;79;20938;-51
2021/05/30 04:12:37;;;;;;;3.22;1.00;;;;;;;14.45;79.85;99194.16;1766115;80;20937;-51
2021/05/30 04:15:06;;;;;;;0.78;0.70;;;;;;;14.45;79.85;99194.16;1763832;79;21025;-52
2021/05/30 04:17:32;;;;;;;0.70;0.70;;;;;;;14.45;79.58;99204.12;1763156;80;20945;-51
2021/05/30 04:20:00;;;;;;;1.00;0.60;;;;;;;14.41;79.63;99198.55;1759404;80;21084;-52
2021/05/30 04:22:26;;;;;;;1.65;0.70;;;;;;;14.42;79.62;99208.41;1764417;80;20984;-55
2021/05/30 04:24:53;;;;;;;0.70;0.70;;;;;;;14.46;79.46;99195.87;1762115;80;20910;-54
2021/05/30 04:27:19;;;;;;;1.35;0.62;;;;;;;14.46;79.46;99195.87;1763855;80;20948;-50
2021/05/30 04:29:45;;;;;;;1.52;0.60;;;;;;;14.46;79.56;99186.39;1764486;79;21490;-51
2021/05/30 04:32:11;;;;;;;0.50;0.50;;;;;;;14.49;79.55;99181.25;1755045;80;22147;-54
2021/05/30 04:34:38;;;;;;;0.53;0.50;;;;;;;14.50;79.42;99183.84;1758622;80;21064;-52
2021/05/30 04:37:04;;;;;;;2.62;0.70;;;;;;;14.47;79.18;99186.77;1757918;80;21047;-49
2021/05/30 04:39:32;;;;;;;1.10;0.65;;;;;;;14.49;79.16;99183.95;1757924;80;21096;-49
2021/05/30 04:41:59;;;;;;;4.62;0.68;;;;;;;14.49;79.16;99183.95;1762302;80;21155;-51
2021/05/30 04:44:26;;;;;;;0.55;0.55;;;;;;;14.51;79.00;99184.72;1759557;80;21051;-50
2021/05/30 04:46:52;;;;;;;0.85;0.60;;;;;;;14.52;79.02;99184.61;1765223;79;21069;-51
2021/05/30 04:49:18;;;;;;;1.55;0.65;;;;;;;14.55;78.84;99185.72;1763589;80;21397;-49
2021/05/30 04:51:45;;;;;;;1.37;0.60;;;;;;;14.61;78.40;99177.66;1761820;80;21099;-51
2021/05/30 04:54:11;;;;;;;3.22;0.60;;;;;;;14.65;78.44;99177.78;1764703;80;21151;-52
2021/05/30 04:56:38;;;;;;;1.77;0.70;;;;;;;14.65;78.44;99180.50;1758321;80;21567;-50
2021/05/30 04:59:04;;;;;;;1.57;1.22;;;;;;;14.61;77.26;99174.46;1760378;80;21036;-50
2021/05/30 05:01:31;;;;;;;1.30;0.70;;;;;;;14.57;77.00;99200.51;1745615;80;21121;-52
2021/05/30 05:03:57;;;;;;;0.68;0.60;;;;;;;14.55;77.24;99202.45;1737002;80;21171;-51
2021/05/30 05:06:24;;;;;;;1.02;0.70;;;;;;;14.55;77.24;99202.45;1739249;80;21089;-50
2021/05/30 05:08:52;;;;;;;11.40;0.70;;;;;;;14.55;77.11;99201.97;1740578;80;21094;-51
2021/05/30 05:11:19;;;;;;;1.72;0.50;;;;;;;14.58;77.16;99191.41;1738569;80;21492;-52
2021/05/30 05:13:46;;;;;;;1.17;0.57;;;;;;;14.62;76.64;99189.73;1739326;81;21770;-52
2021/05/30 05:16:13;;;;;;;0.70;0.70;;;;;;;14.62;76.64;99189.73;1735165;80;21102;-50
2021/05/30 05:18:40;;;;;;;1.75;0.70;;;;;;;14.63;76.39;99200.08;1732141;81;21131;-51
2021/05/30 05:21:08;;;;;;;0.60;0.50;;;;;;;14.63;76.39;99200.08;1739975;81;21074;-51
2021/05/30 05:23:36;;;;;;;1.82;0.53;;;;;;;14.63;76.46;99204.14;1736042;81;21150;-52
2021/05/30 05:26:04;;;;;;;0.90;0.60;;;;;;;14.62;76.48;99191.09;1736655;81;21069;-52
2021/05/30 05:28:31;;;;;;;0.53;0.50;;;;;;;14.68;76.19;99204.17;1737761;81;21088;-50
2021/05/30 05:30:58;;;;;;;0.70;0.60;;;;;;;14.69;76.29;99198.27;1737728;80;21086;-53
2021/05/30 05:33:24;;;;;;;2.15;0.70;;;;;;;14.75;75.87;99202.73;1736360;81;21658;-50
2021/05/30 05:35:51;;;;;;;0.93;0.70;;;;;;;14.80;75.81;99198.31;1737239;80;21671;-51
2021/05/30 05:38:18;;;;;;;0.70;0.70;;;;;;;14.82;75.51;99199.08;1734771;81;21114;-53
2021/05/30 05:40:44;;;;;;;0.85;0.75;;;;;;;14.85;75.13;99195.28;1738002;80;21469;-54
2021/05/30 05:43:11;;;;;;;0.70;0.70;;;;;;;14.87;75.23;99195.55;1739415;81;21157;-49
2021/05/30 05:45:37;;;;;;;3.33;0.60;;;;;;;15.00;75.45;99184.16;1735807;81;21954;-53
2021/05/30 05:48:11;;;;;;;1.35;0.70;;;;;;;15.00;75.45;99184.16;1736376;80;21075;-52
2021/05/30 05:50:38;;;;;;;1.15;0.60;;;;;;;15.07;75.02;99183.20;1737778;80;21572;-50
2021/05/30 05:53:04;;;;;;;1.35;0.70;;;;;;;15.10;74.89;99177.06;1735781;80;21126;-53
2021/05/30 05:55:30;;;;;;;2.40;0.70;;;;;;;15.14;74.57;99172.29;1737772;80;21746;-50
2021/05/30 05:57:57;;;;;;;0.80;0.72;;;;;;;15.12;74.22;99169.69;1734880;81;21141;-51
2021/05/30 06:00:23;;;;;;;1.75;0.70;;;;;;;15.14;74.37;99177.19;1747563;80;21135;-53
2021/05/30 06:02:50;;;;;;;1.12;0.65;;;;;;;15.19;74.30;99179.56;1758837;79;21108;-51
2021/05/30 06:05:20;;;;;;;1.20;0.70;;;;;;;15.21;73.70;99180.33;1760998;80;21036;-53
2021/05/30 06:07:48;;;;;;;0.82;0.60;;;;;;;15.22;73.82;99186.61;1762514;80;20992;-50
2021/05/30 06:10:17;;;;;;;1.07;0.68;;;;;;;15.25;73.50;99194.49;1760884;80;21712;-49
2021/05/30 06:12:44;;;;;;;2.65;1.07;;;;;;;15.30;73.75;99193.19;1760426;80;21984;-50
2021/05/30 06:15:11;;;;;;;0.98;0.88;;;;;;;15.43;73.85;99199.38;1761512;80;21941;-49
2021/05/30 06:17:37;;;;;;;2.72;0.75;;;;;;;15.57;73.56;99188.84;1757695;80;21191;-51
2021/05/30 06:20:05;;;;;;;1.67;0.75;;;;;;;15.73;72.73;99189.41;1762230;79;20933;-50
2021/05/30 06:22:32;;;;;;;0.53;0.53;;;;;;;15.83;72.03;99192.23;1756275;80;21579;-50
2021/05/30 06:24:59;;;;;;;0.60;0.60;;;;;;;15.89;71.20;99195.36;1760504;80;21116;-50
2021/05/30 06:27:25;;;;;;;0.82;0.70;;;;;;;15.97;71.16;99186.61;1757416;80;21374;-50
2021/05/30 06:29:51;;;;;;;5.05;0.80;;;;;;;16.08;69.71;99189.80;1759250;80;21562;-50
2021/05/30 06:32:18;;;;;;;3.90;0.68;;;;;;;16.14;70.26;99198.84;1761188;80;21124;-51
2021/05/30 06:34:44;;;;;;;1.27;0.60;;;;;;;16.20;69.57;99199.20;1758759;80;21142;-50
2021/05/30 06:37:10;;;;;;;1.27;0.60;;;;;;;16.22;68.41;99192.30;1756921;80;21152;-53
2021/05/30 06:39:37;;;;;;;1.45;0.50;;;;;;;16.24;68.13;99202.55;1755186;80;21195;-50
2021/05/30 06:42:04;;;;;;;0.65;0.65;;;;;;;16.25;67.94;99198.82;1758374;80;21565;-50
2021/05/30 06:44:31;;;;;;;1.40;0.53;;;;;;;16.30;67.13;99206.13;1764301;80;21107;-52
2021/05/30 06:46:58;;;;;;;0.80;0.50;;;;;;;16.31;66.71;99209.70;1761475;80;21131;-52
2021/05/30 06:49:24;;;;;;;0.60;0.60;;;;;;;16.32;66.91;99215.02;1761011;80;21111;-50
2021/05/30 06:51:50;;;;;;;1.67;0.60;;;;;;;16.35;66.33;99220.19;1764704;79;21669;-49
2021/05/30 06:54:19;;;;;;;1.10;0.50;;;;;;;16.35;66.34;99231.05;1759298;79;21106;-49
2021/05/30 06:56:45;;;;;;;1.90;0.40;;;;;;;16.33;66.27;99219.47;1760879;80;21095;-50
2021/05/30 06:59:11;;;;;;;0.50;0.50;;;;;;;16.37;65.99;99225.50;1763927;79;21099;-50
2021/05/30 07:01:38;;;;;;;3.02;0.55;;;;;;;16.37;65.93;99224.14;1744252;80;20952;-48
2021/05/30 07:04:05;;;;;;;0.70;0.60;;;;;;;16.35;65.64;99220.19;1739962;80;20909;-50
2021/05/30 07:06:31;;;;;;;4.42;0.50;;;;;;;16.40;66.24;99225.27;1740398;80;21470;-50
2021/05/30 07:08:59;;;;;;;3.22;0.50;;;;;;;16.47;66.21;99219.22;1736114;80;21716;-49
2021/05/30 07:11:27;;;;;;;0.70;0.60;;;;;;;16.52;65.00;99225.13;1737708;80;21925;-52
2021/05/30 07:13:54;;;;;;;0.80;0.53;;;;;;;16.55;65.33;99226.25;1737162;80;20953;-53
2021/05/30 07:16:20;;;;;;;1.17;0.45;;;;;;;16.60;65.33;99230.80;1738323;80;20944;-54
2021/05/30 07:18:46;;;;;;;0.40;0.40;;;;;;;16.64;63.17;99223.31;1735819;80;22760;-53
2021/05/30 07:21:13;;;;;;;0.47;0.47;;;;;;;16.67;63.87;99227.64;1732522;80;21771;-55
2021/05/30 07:23:43;;;;;;;1.50;0.40;;;;;;;16.67;63.82;99232.59;1733373;80;21024;-53
2021/05/30 07:26:09;;;;;;;0.40;0.40;;;;;;;16.65;63.73;99227.77;1735007;80;22262;-52
2021/05/30 07:28:36;;;;;;;0.70;0.50;;;;;;;16.61;63.96;99228.49;1736208;80;21115;-53
2021/05/30 07:31:02;;;;;;;0.55;0.50;;;;;;;16.59;63.97;99236.36;1733452;80;21141;-49
2021/05/30 07:33:29;;;;;;;1.90;0.40;;;;;;;16.57;64.62;99232.43;1739143;80;20916;-55
2021/05/30 07:35:55;;;;;;;0.85;0.50;;;;;;;16.61;63.72;99232.57;1732788;80;21404;-51
2021/05/30 07:38:21;;;;;;;1.80;0.40;;;;;;;16.64;63.28;99228.26;1735076;80;20995;-51
2021/05/30 07:40:49;;;;;;;0.42;0.40;;;;;;;16.72;63.99;99232.20;1737331;80;21727;-49
2021/05/30 07:43:15;;;;;;;0.50;0.50;;;;;;;16.79;63.79;99242.93;1738024;80;20960;-54
2021/05/30 07:45:42;;;;;;;0.60;0.50;;;;;;;16.86;63.56;99236.86;1741567;80;20928;-48
2021/05/30 07:48:08;;;;;;;0.45;0.40;;;;;;;16.89;63.49;99235.75;1741696;80;21585;-54
2021/05/30 07:50:35;;;;;;;3.80;1.45;;;;;;;16.90;63.31;99244.28;1743136;80;21121;-51
2021/05/30 07:53:03;;;;;;;0.40;0.40;;;;;;;16.94;63.05;99247.11;1739127;80;21115;-52
2021/05/30 07:55:29;;;;;;;1.67;0.50;;;;;;;16.96;62.23;99242.41;1739006;80;20996;-52
2021/05/30 07:57:55;;;;;;;0.40;0.40;;;;;;;16.94;61.98;99232.16;1740206;80;20956;-52
2021/05/30 08:00:24;;;;;;;0.80;0.60;;;;;;;16.92;62.29;99233.66;1743347;80;21574;-52
2021/05/30 08:02:51;;;;;;;0.50;0.37;;;;;;;16.94;62.39;99233.52;1756327;80;21117;-54
2021/05/30 08:05:19;;;;;;;0.47;0.40;;;;;;;17.00;61.93;99235.25;1758238;80;21160;-54
2021/05/30 08:07:46;;;;;;;1.87;0.50;;;;;;;17.06;61.70;99236.59;1759479;79;22339;-56
2021/05/30 08:10:14;;;;;;;0.98;0.47;;;;;;;17.15;62.22;99233.11;1761851;80;21581;-54
2021/05/30 08:12:41;;;;;;;0.50;0.50;;;;;;;17.25;61.98;99237.29;1759772;80;22313;-52
2021/05/30 08:15:10;;;;;;;0.88;0.60;;;;;;;17.27;61.33;99232.55;1758528;80;20971;-52
2021/05/30 08:17:38;;;;;;;1.17;0.42;;;;;;;17.30;61.39;99234.54;1761724;79;21681;-56
2021/05/30 08:20:07;;;;;;;0.60;0.40;;;;;;;17.36;61.53;99244.03;1758167;79;21698;-55
2021/05/30 08:22:34;;;;;;;2.77;0.50;;;;;;;17.42;61.32;99242.17;1760886;79;21305;-50
2021/05/30 08:25:00;;;;;;;0.45;0.45;;;;;;;17.49;60.98;99245.23;1761084;80;22332;-52
2021/05/30 08:27:27;;;;;;;1.95;0.40;;;;;;;17.55;61.39;99233.82;1759779;80;21091;-52
2021/05/30 08:29:54;;;;;;;0.40;0.40;;;;;;;17.60;60.98;99244.70;1758256;79;21480;-54
2021/05/30 08:32:21;;;;;;;0.93;0.50;;;;;;;17.65;61.29;99250.64;1757717;79;21111;-54
2021/05/30 08:34:48;;;;;;;1.40;0.72;;;;;;;17.70;60.66;99247.51;1759442;79;21091;-54
2021/05/30 08:37:17;;;;;;;1.50;0.40;;;;;;;17.68;59.76;99248.16;1757957;80;21649;-51
2021/05/30 08:39:43;;;;;;;0.72;0.40;;;;;;;17.64;59.76;99250.77;1760706;80;21098;-49
2021/05/30 08:42:10;;;;;;;0.40;0.40;;;;;;;17.61;60.49;99245.53;1759881;80;21090;-49
2021/05/30 08:44:37;;;;;;;0.40;0.40;;;;;;;17.59;60.35;99242.97;1758013;80;21175;-53
2021/05/30 08:47:03;;;;;;;0.50;0.50;;;;;;;17.57;60.50;99244.95;1755835;79;21647;-52
2021/05/30 08:49:30;;;;;;;0.93;0.50;;;;;;;17.56;60.78;99239.63;1756489;79;21178;-54
2021/05/30 08:51:56;;;;;;;4.53;1.30;;;;;;;17.51;60.75;99248.70;1758798;79;21062;-53
2021/05/30 08:54:22;;;;;;;2.25;0.50;;;;;;;17.44;60.67;99246.13;1758573;80;22430;-53
2021/05/30 08:56:48;;;;;;;0.50;0.40;;;;;;;17.38;60.54;99259.73;1760378;79;21736;-51
2021/05/30 08:59:30;;;;;;;0.72;0.40;;;;;;;17.30;60.11;99257.66;1763039;79;21136;-52
2021/05/30 09:01:59;;;;;;;1.85;0.70;;;;;;;17.25;60.05;99257.69;1762691;80;21360;-51
2021/05/30 09:04:34;;;;;;;1.10;0.60;;;;;;;17.19;60.54;99263.12;1764394;79;20964;-52
2021/05/30 09:07:01;;;;;;;2.00;0.50;;;;;;;17.11;60.28;99262.89;1765248;79;21021;-54
2021/05/30 09:09:42;;;;;;;0.65;0.50;;;;;;;17.03;61.01;99262.17;1765382;79;21398;-52
2021/05/30 09:12:29;;;;;;;1.05;0.50;;;;;;;17.00;61.55;99266.52;1762649;79;21092;-51
2021/05/30 09:14:55;;;;;;;0.98;0.40;;;;;;;17.00;61.67;99269.23;1764402;79;21079;-49
2021/05/30 09:17:24;;;;;;;2.02;0.60;;;;;;;17.02;61.49;99267.23;1766288;79;20926;-51
2021/05/30 09:19:54;;;;;;;0.47;0.45;;;;;;;17.05;61.89;99263.90;1766250;79;21021;-49
2021/05/30 09:22:31;;;;;;;0.82;0.50;;;;;;;17.06;62.26;99267.86;1767768;79;21099;-51
2021/05/30 09:25:15;;;;;;;0.53;0.50;;;;;;;17.07;62.59;99266.00;1761613;79;21457;-54
2021/05/30 09:27:48;;;;;;;0.50;0.40;;;;;;;17.08;62.78;99265.02;1702984;82;22340;-49
2021/05/30 09:30:25;;;;;;;1.98;0.40;;;;;;;17.06;62.66;99274.66;1759536;79;22104;-48
2021/05/30 09:33:07;;;;;;;0.82;0.40;;;;;;;17.02;62.55;99273.16;1766573;79;20956;-51
2021/05/30 09:35:44;;;;;;;2.45;0.40;;;;;;;16.97;62.58;99275.41;1700013;82;21104;-48
2021/05/30 09:38:38;;;;;;;1.57;0.40;;;;;;;16.94;62.68;99277.01;1766786;79;21112;-56
2021/05/30 09:41:13;;;;;;;0.35;0.35;;;;;;;16.88;62.43;99279.74;1761235;79;21407;-55
2021/05/30 09:43:51;;;;;;;1.55;0.50;;;;;;;16.83;62.47;99285.20;1767401;79;21015;-53
2021/05/30 09:46:19;;;;;;;2.60;0.33;;;;;;;16.80;62.30;99282.72;1765659;79;21108;-54
2021/05/30 09:48:55;;;;;;;1.57;0.72;;;;;;;16.76;62.76;99281.25;1767577;79;21200;-54
2021/05/30 09:51:40;;;;;;;3.00;0.60;;;;;;;16.69;63.26;99277.27;1765112;79;20913;-52
2021/05/30 09:54:14;;;;;;;0.90;0.42;;;;;;;16.62;63.67;99283.21;1766593;79;21649;-51
2021/05/30 09:56:46;;;;;;;2.67;0.30;;;;;;;16.62;64.02;99288.64;1765072;79;21086;-52
2021/05/30 09:59:14;;;;;;;3.30;0.30;;;;;;;16.68;64.33;99287.27;1764910;79;21127;-50
2021/05/30 10:02:00;;;;;;;1.40;0.47;;;;;;;16.64;63.16;99288.53;1766911;79;20924;-51
2021/05/30 10:04:30;;;;;;;2.47;0.33;;;;;;;16.53;63.38;99297.50;1758361;80;21542;-51
2021/05/30 10:07:02;;;;;;;1.10;0.37;;;;;;;16.38;63.47;99300.08;1760985;79;21036;-52
2021/05/30 10:09:30;;;;;;;2.30;0.45;;;;;;;16.25;63.85;99301.53;1757013;80;21453;-51
2021/05/30 10:11:56;;;;;;;3.58;0.40;;;;;;;16.14;64.24;99297.94;1761924;79;20937;-50
2021/05/30 10:14:24;;;;;;;0.72;0.40;;;;;;;16.07;64.49;99303.48;1763771;79;20902;-53
2021/05/30 10:16:50;;;;;;;1.87;0.37;;;;;;;16.01;64.90;99306.65;1761090;79;21514;-52
2021/05/30 10:19:31;;;;;;;1.00;0.40;;;;;;;16.00;65.21;99311.70;1765992;80;21076;-51
2021/05/30 10:21:59;;;;;;;0.57;0.40;;;;;;;16.02;65.29;99316.03;1761622;80;20965;-54
2021/05/30 10:24:25;;;;;;;0.50;0.50;;;;;;;16.05;64.92;99314.95;1763379;80;21734;-49
2021/05/30 10:27:20;;;;;;;0.40;0.40;;;;;;;16.03;65.06;99320.48;1761048;80;20933;-53
2021/05/30 10:30:15;;;;;;;;;;;;;;;16.01;65.05;99320.22;1760088;79;20906;-53
2021/05/30 10:32:47;;;;;;;2.30;0.40;;;;;;;15.96;65.06;99318.37;1761342;79;21659;-52
2021/05/30 10:35:25;;;;;;;0.37;0.37;;;;;;;15.86;65.32;99318.20;1761082;79;21108;-51
2021/05/30 10:37:53;;;;;;;1.20;0.50;;;;;;;15.77;65.27;99317.06;1760658;79;20897;-51
2021/05/30 10:40:35;;;;;;;0.30;0.30;;;;;;;15.72;65.76;99328.77;1762687;79;20955;-57
2021/05/30 10:43:14;;;;;;;0.40;0.40;;;;;;;15.70;66.02;99332.08;1760879;80;21075;-56
2021/05/30 10:45:53;;;;;;;1.60;0.40;;;;;;;15.68;66.58;99323.19;1763656;80;21375;-56
2021/05/30 10:48:20;;;;;;;3.42;0.50;;;;;;;15.69;66.77;99319.50;1759894;79;21120;-50
2021/05/30 10:53:48;;;;;;;0.40;0.37;;;;;;;15.75;67.62;99316.80;1758353;80;21713;-52
2021/05/30 10:56:34;;;;;;;1.85;0.40;;;;;;;15.81;67.70;99319.93;1748257;79;21756;-50
2021/05/30 10:59:15;;;;;;;0.60;0.42;;;;;;;15.88;67.35;99323.90;1720285;81;22283;-51
2021/05/30 11:01:50;;;;;;;1.20;0.50;;;;;;;15.97;67.16;99328.25;1760577;79;21510;-54
2021/05/30 11:04:31;;;;;;;0.75;0.55;;;;;;;16.05;67.12;99323.09;1761158;80;21099;-54
2021/05/30 11:07:19;;;;;;;0.70;0.60;;;;;;;16.11;66.83;99322.61;1757745;80;21006;-54
2021/05/30 11:09:57;;;;;;;0.60;0.60;;;;;;;16.17;66.24;99322.12;1760868;79;21111;-53
2021/05/30 11:12:35;;;;;;;1.85;0.70;;;;;;;16.20;66.25;99322.76;1758721;79;21688;-55
2021/05/30 11:15:19;;;;;;;1.05;0.60;;;;;;;16.24;65.83;99327.47;1759926;79;21080;-50
2021/05/30 11:17:56;;;;;;;3.08;0.55;;;;;;;16.26;65.88;99336.34;1760343;79;21112;-54
2021/05/30 11:20:39;;;;;;;2.05;0.53;;;;;;;16.31;65.04;99356.36;1758232;79;21179;-52
2021/05/30 11:23:16;;;;;;;1.85;0.50;;;;;;;16.31;64.66;99355.01;1759854;79;21337;-54
2021/05/30 11:25:50;;;;;;;0.85;0.50;;;;;;;16.31;65.15;99355.01;1757186;80;21824;-52
2021/05/30 11:28:23;;;;;;;0.70;0.65;;;;;;;16.35;65.00;99360.56;1758935;79;21177;-53
2021/05/30 11:30:58;;;;;;;1.35;0.75;;;;;;;16.35;64.79;99358.70;1760604;80;21510;-53
2021/05/30 11:33:30;;;;;;;0.65;0.60;;;;;;;16.35;65.10;99357.34;1762651;80;21452;-55
2021/05/30 11:35:59;;;;;;;2.17;0.72;;;;;;;16.35;65.15;99353.28;1760940;80;21177;-54
2021/05/30 11:38:53;;;;;;;0.90;0.80;;;;;;;16.33;64.57;99360.70;1759641;79;21508;-51
2021/05/30 11:41:29;;;;;;;5.08;0.57;;;;;;;16.33;65.19;99370.20;1758440;79;21122;-49
2021/05/30 11:44:13;;;;;;;1.25;0.60;;;;;;;16.34;65.19;99367.84;1757730;80;21108;-51
2021/05/30 11:46:52;;;;;;;2.12;0.65;;;;;;;16.31;65.11;99372.66;1762615;80;21064;-51
2021/05/30 11:49:23;;;;;;;2.50;0.88;;;;;;;16.31;65.38;99378.96;1759097;79;21016;-49